createdAt,value
2022-09-18T00:00:37.253Z,0.00
2022-09-18T00:01:37.233Z,0.00
2022-09-18T00:02:37.169Z,0.00
2022-09-18T00:03:37.010Z,0.00
2022-09-18T00:04:36.929Z,0.00
2022-09-18T00:05:36.847Z,0.00
2022-09-18T00:06:36.781Z,0.00
2022-09-18T00:07:36.802Z,0.00
2022-09-18T00:08:36.603Z,0.00
2022-09-18T00:09:36.523Z,0.00
2022-09-18T00:10:36.442Z,0.00
2022-09-18T00:11:36.363Z,0.00
2022-09-18T00:12:36.278Z,0.00
2022-09-18T00:13:36.200Z,0.00
2022-09-18T00:14:36.268Z,0.00
2022-09-18T00:15:36.041Z,0.00
2022-09-18T00:16:36.160Z,0.00
2022-09-18T00:17:35.874Z,0.00
2022-09-18T00:18:35.793Z,0.00
2022-09-18T00:19:35.715Z,0.00
2022-09-18T00:20:35.630Z,0.00
2022-09-18T00:21:35.552Z,0.00
2022-09-18T00:22:35.471Z,0.00
2022-09-18T00:23:35.513Z,0.00
2022-09-18T00:24:35.309Z,0.00
2022-09-18T00:25:35.229Z,0.00
2022-09-18T00:26:35.146Z,0.00
2022-09-18T00:27:35.064Z,0.00
2022-09-18T00:28:34.988Z,0.00
2022-09-18T00:29:34.905Z,0.00
2022-09-18T00:30:34.824Z,0.00
2022-09-18T00:31:34.829Z,0.00
2022-09-18T00:32:34.660Z,0.00
2022-09-18T00:33:34.578Z,0.00
2022-09-18T00:34:34.499Z,0.00
2022-09-18T00:35:34.419Z,0.00
2022-09-18T00:36:34.336Z,0.00
2022-09-18T00:37:34.257Z,0.00
2022-09-18T00:38:34.175Z,0.00
2022-09-18T00:39:34.221Z,0.00
2022-09-18T00:40:34.113Z,0.00
2022-09-18T00:41:33.929Z,0.00
2022-09-18T00:42:33.849Z,0.00
2022-09-18T00:43:33.769Z,0.00
2022-09-18T00:44:33.687Z,0.00
2022-09-18T00:45:33.856Z,0.00
2022-09-18T00:46:33.609Z,0.00
2022-09-18T00:47:33.446Z,0.00
2022-09-18T00:48:33.363Z,0.00
2022-09-18T00:49:33.280Z,0.00
2022-09-18T00:51:20.685Z,0.00
2022-09-18T00:52:20.602Z,0.00
2022-09-18T00:53:23.141Z,0.00
2022-09-18T00:54:20.439Z,0.00
2022-09-18T00:55:20.475Z,0.00
2022-09-18T00:56:20.276Z,0.00
2022-09-18T00:57:20.197Z,0.00
2022-09-18T00:58:20.114Z,0.00
2022-09-18T00:59:20.037Z,0.00
2022-09-18T01:00:19.989Z,0.00
2022-09-18T01:01:19.932Z,0.00
2022-09-18T01:02:19.884Z,0.00
2022-09-18T01:03:19.712Z,0.00
2022-09-18T01:04:19.628Z,0.00
2022-09-18T01:05:19.549Z,0.00
2022-09-18T01:06:19.467Z,0.00
2022-09-18T01:07:19.386Z,0.00
2022-09-18T01:08:19.303Z,0.00
2022-09-18T01:09:28.273Z,0.00
2022-09-18T01:10:19.143Z,0.00
2022-09-18T01:11:19.451Z,0.00
2022-09-18T01:12:18.977Z,0.00
2022-09-18T01:13:19.048Z,0.00
2022-09-18T01:14:18.821Z,0.00
2022-09-18T01:15:18.737Z,0.00
2022-09-18T01:16:18.720Z,0.00
2022-09-18T01:17:18.577Z,0.00
2022-09-18T01:18:18.494Z,0.00
2022-09-18T01:19:18.411Z,0.00
2022-09-18T01:20:18.333Z,0.00
2022-09-18T01:21:18.257Z,0.00
2022-09-18T01:22:18.167Z,0.00
2022-09-18T01:23:18.092Z,0.00
2022-09-18T01:24:18.009Z,0.00
2022-09-18T01:25:18.274Z,0.00
2022-09-18T01:26:17.849Z,0.00
2022-09-18T01:27:17.886Z,0.00
2022-09-18T01:28:17.685Z,0.00
2022-09-18T01:29:17.601Z,0.00
2022-09-18T01:30:17.522Z,0.00
2022-09-18T01:31:17.546Z,0.00
2022-09-18T01:32:17.358Z,0.00
2022-09-18T01:33:17.282Z,0.00
2022-09-18T01:34:17.199Z,0.00
2022-09-18T01:35:39.491Z,0.00
2022-09-18T01:36:17.035Z,0.00
2022-09-18T01:37:16.954Z,0.00
2022-09-18T01:38:16.873Z,0.00
2022-09-18T01:39:16.796Z,0.00
2022-09-18T01:40:16.769Z,0.00
2022-09-18T01:41:16.630Z,0.00
2022-09-18T01:42:16.550Z,0.00
2022-09-18T01:43:16.586Z,0.00
2022-09-18T01:44:16.390Z,0.00
2022-09-18T01:45:16.312Z,0.00
2022-09-18T01:46:16.315Z,0.00
2022-09-18T01:47:16.149Z,0.00
2022-09-18T01:48:16.066Z,0.00
2022-09-18T01:49:16.133Z,0.00
2022-09-18T01:50:15.903Z,0.00
2022-09-18T01:51:15.825Z,0.00
2022-09-18T01:52:15.743Z,0.00
2022-09-18T01:53:15.660Z,0.00
2022-09-18T01:54:15.585Z,0.00
2022-09-18T01:55:15.503Z,0.00
2022-09-18T01:56:15.422Z,0.00
2022-09-18T01:57:15.338Z,0.00
2022-09-18T01:58:15.260Z,0.00
2022-09-18T01:59:15.289Z,0.00
2022-09-18T02:00:15.098Z,0.00
2022-09-18T02:01:15.047Z,0.00
2022-09-18T02:02:15.066Z,0.00
2022-09-18T02:03:14.856Z,0.00
2022-09-18T02:04:14.773Z,0.00
2022-09-18T02:05:14.696Z,0.00
2022-09-18T02:06:14.612Z,0.00
2022-09-18T02:07:14.534Z,0.00
2022-09-18T02:08:14.452Z,0.00
2022-09-18T02:09:14.371Z,0.00
2022-09-18T02:10:14.289Z,0.00
2022-09-18T02:11:14.212Z,0.00
2022-09-18T02:12:14.130Z,0.00
2022-09-18T02:13:14.048Z,0.00
2022-09-18T02:14:13.968Z,0.00
2022-09-18T02:15:14.005Z,0.00
2022-09-18T02:16:13.850Z,0.00
2022-09-18T02:17:13.724Z,0.00
2022-09-18T02:18:13.643Z,0.00
2022-09-18T02:19:13.565Z,0.00
2022-09-18T02:20:14.508Z,0.00
2022-09-18T02:21:13.403Z,0.00
2022-09-18T02:22:13.323Z,0.00
2022-09-18T02:23:13.242Z,0.00
2022-09-18T02:24:13.158Z,0.00
2022-09-18T02:25:13.081Z,0.00
2022-09-18T02:26:13.003Z,0.00
2022-09-18T02:27:12.918Z,0.00
2022-09-18T02:28:12.838Z,0.00
2022-09-18T02:29:12.758Z,0.00
2022-09-18T02:30:12.681Z,0.00
2022-09-18T02:31:12.847Z,0.00
2022-09-18T02:32:12.514Z,0.00
2022-09-18T02:33:12.434Z,0.00
2022-09-18T02:34:12.354Z,0.00
2022-09-18T02:35:12.276Z,0.00
2022-09-18T02:36:12.191Z,0.00
2022-09-18T02:37:12.113Z,0.00
2022-09-18T02:38:12.030Z,0.00
2022-09-18T02:39:11.953Z,0.00
2022-09-18T02:40:11.918Z,0.00
2022-09-18T02:41:11.791Z,0.00
2022-09-18T02:49:46.905Z,0.00
2022-09-18T02:50:46.708Z,0.00
2022-09-18T02:51:46.632Z,0.00
2022-09-18T02:52:46.558Z,0.00
2022-09-18T02:53:46.471Z,0.00
2022-09-18T02:54:46.386Z,0.00
2022-09-18T02:55:46.308Z,0.00
2022-09-18T02:56:46.476Z,0.00
2022-09-18T02:57:46.145Z,0.00
2022-09-18T02:58:46.065Z,0.00
2022-09-18T02:59:45.985Z,0.00
2022-09-18T03:00:45.900Z,0.00
2022-09-18T03:01:45.906Z,0.00
2022-09-18T03:02:45.781Z,0.00
2022-09-18T03:03:45.664Z,0.00
2022-09-18T03:04:45.579Z,0.00
2022-09-18T03:05:45.817Z,0.00
2022-09-18T03:06:45.418Z,0.00
2022-09-18T03:07:45.338Z,0.00
2022-09-18T03:08:45.259Z,0.00
2022-09-18T03:09:45.178Z,0.00
2022-09-18T03:10:45.095Z,0.00
2022-09-18T03:11:45.016Z,0.00
2022-09-18T03:12:44.935Z,0.00
2022-09-18T03:13:44.853Z,0.00
2022-09-18T03:14:44.775Z,0.00
2022-09-18T03:15:44.727Z,0.00
2022-09-18T03:16:44.610Z,0.00
2022-09-18T03:17:44.531Z,0.00
2022-09-18T03:18:44.450Z,0.00
2022-09-18T03:19:44.374Z,0.00
2022-09-18T03:20:44.290Z,0.00
2022-09-18T03:21:44.326Z,0.00
2022-09-18T03:22:44.126Z,0.00
2022-09-18T03:23:45.690Z,0.00
2022-09-18T03:24:43.964Z,0.00
2022-09-18T03:25:43.884Z,0.00
2022-09-18T03:26:43.801Z,0.00
2022-09-18T03:27:43.721Z,0.00
2022-09-18T03:28:43.642Z,0.00
2022-09-18T03:29:43.564Z,0.00
2022-09-18T03:30:43.480Z,0.00
2022-09-18T03:31:43.489Z,0.00
2022-09-18T03:32:43.517Z,0.00
2022-09-18T03:33:43.236Z,0.00
2022-09-18T03:34:43.155Z,0.00
2022-09-18T03:35:43.076Z,0.00
2022-09-18T03:36:42.994Z,0.00
2022-09-18T03:37:43.029Z,0.00
2022-09-18T03:38:42.839Z,0.00
2022-09-18T03:39:42.753Z,0.00
2022-09-18T03:40:47.187Z,0.00
2022-09-18T03:41:42.592Z,0.00
2022-09-18T03:42:42.711Z,0.00
2022-09-18T03:43:42.430Z,0.00
2022-09-18T03:44:42.345Z,0.00
2022-09-18T03:45:42.265Z,0.00
2022-09-18T03:46:42.287Z,0.00
2022-09-18T03:47:42.107Z,0.00
2022-09-18T03:48:42.024Z,0.00
2022-09-18T03:49:41.944Z,0.00
2022-09-18T03:50:41.862Z,0.00
2022-09-18T03:51:41.782Z,0.00
2022-09-18T03:52:41.699Z,0.00
2022-09-18T03:53:41.638Z,0.00
2022-09-18T03:54:41.540Z,0.00
2022-09-18T03:55:41.460Z,0.00
2022-09-18T03:56:41.378Z,0.00
2022-09-18T03:57:41.297Z,0.00
2022-09-18T03:58:41.216Z,0.00
2022-09-18T03:59:41.138Z,0.00
2022-09-18T04:00:41.057Z,0.00
2022-09-18T04:02:53.503Z,0.00
2022-09-18T04:03:53.394Z,0.00
2022-09-18T04:04:53.305Z,0.00
2022-09-18T04:05:53.225Z,0.00
2022-09-18T04:06:53.144Z,0.00
2022-09-18T04:07:53.063Z,0.00
2022-09-18T04:08:53.097Z,0.00
2022-09-18T04:09:52.900Z,0.00
2022-09-18T04:10:52.825Z,0.00
2022-09-18T04:11:52.740Z,0.00
2022-09-18T04:12:55.480Z,0.00
2022-09-18T04:13:53.588Z,0.00
2022-09-18T04:19:01.277Z,0.00
2022-09-18T04:20:04.458Z,0.00
2022-09-18T04:21:01.115Z,0.00
2022-09-18T04:22:01.032Z,0.00
2022-09-18T04:23:00.951Z,0.00
2022-09-18T04:24:01.097Z,0.00
2022-09-18T04:25:00.792Z,0.00
2022-09-18T04:26:00.708Z,0.00
2022-09-18T04:27:00.629Z,0.00
2022-09-18T04:28:00.582Z,0.00
2022-09-18T04:29:00.468Z,0.00
2022-09-18T04:30:00.387Z,0.00
2022-09-18T04:31:00.333Z,0.00
2022-09-18T04:32:00.257Z,0.00
2022-09-18T04:33:00.143Z,0.00
2022-09-18T04:34:00.062Z,0.00
2022-09-18T04:34:59.981Z,0.00
2022-09-18T04:35:59.900Z,0.00
2022-09-18T04:38:59.936Z,0.00
2022-09-18T05:35:55.161Z,136.00
2022-09-18T05:36:54.964Z,140.00
2022-09-18T05:37:54.882Z,140.00
2022-09-18T05:38:54.800Z,152.00
2022-09-18T05:39:54.751Z,172.00
2022-09-18T05:40:54.641Z,204.00
2022-09-18T05:41:54.558Z,236.00
2022-09-18T05:42:54.484Z,260.00
2022-09-18T05:43:54.399Z,280.00
2022-09-18T05:44:56.700Z,300.00
2022-09-18T05:45:54.237Z,316.00
2022-09-18T05:46:54.230Z,332.00
2022-09-18T05:47:54.075Z,340.00
2022-09-18T05:48:53.993Z,348.00
2022-09-18T05:49:53.913Z,360.00
2022-09-18T05:50:53.833Z,364.00
2022-09-18T05:51:53.910Z,360.00
2022-09-18T05:52:53.670Z,360.00
2022-09-18T05:53:53.593Z,376.00
2022-09-18T05:54:53.507Z,420.00
2022-09-18T05:55:53.430Z,456.00
2022-09-18T05:56:53.346Z,484.00
2022-09-18T05:57:53.266Z,500.00
2022-09-18T05:58:53.183Z,516.00
2022-09-18T05:59:53.107Z,548.00
2022-09-18T06:00:53.041Z,576.00
2022-09-18T06:01:52.954Z,580.00
2022-09-18T06:02:52.893Z,564.00
2022-09-18T06:03:52.782Z,548.00
2022-09-18T06:04:52.701Z,516.00
2022-09-18T06:05:52.625Z,480.00
2022-09-18T06:06:52.537Z,468.00
2022-09-18T06:07:56.416Z,484.00
2022-09-18T06:08:52.380Z,512.00
2022-09-18T06:09:52.297Z,556.00
2022-09-18T06:10:52.216Z,608.00
2022-09-18T06:11:52.285Z,660.00
2022-09-18T06:12:52.054Z,708.00
2022-09-18T06:13:51.972Z,724.00
2022-09-18T06:14:51.890Z,716.00
2022-09-18T06:15:51.851Z,704.00
2022-09-18T06:16:51.731Z,692.00
2022-09-18T06:17:51.650Z,688.00
2022-09-18T06:18:51.647Z,720.00
2022-09-18T06:19:51.488Z,804.00
2022-09-18T06:20:51.408Z,908.00
2022-09-18T06:21:51.330Z,1004.00
2022-09-18T06:22:51.245Z,1084.00
2022-09-18T06:23:51.278Z,1176.00
2022-09-18T06:24:51.086Z,1312.00
2022-09-18T06:25:51.004Z,1468.00
2022-09-18T06:26:50.924Z,1576.00
2022-09-18T06:27:50.845Z,1668.00
2022-09-18T06:28:50.765Z,1712.00
2022-09-18T06:29:50.736Z,1692.00
2022-09-18T06:30:50.600Z,1620.00
2022-09-18T06:31:50.784Z,1552.00
2022-09-18T06:32:50.442Z,1516.00
2022-09-18T06:33:50.477Z,1552.00
2022-09-18T06:34:50.281Z,1548.00
2022-09-18T06:35:50.201Z,1576.00
2022-09-18T06:36:50.117Z,1664.00
2022-09-18T06:37:50.039Z,1732.00
2022-09-18T06:38:49.958Z,1792.00
2022-09-18T06:39:49.999Z,1752.00
2022-09-18T06:40:49.798Z,1740.00
2022-09-18T06:41:49.725Z,1760.00
2022-09-18T06:42:49.637Z,1748.00
2022-09-18T06:43:49.556Z,1696.00
2022-09-18T06:44:49.477Z,1656.00
2022-09-18T06:45:49.397Z,1632.00
2022-09-18T06:46:49.450Z,1544.00
2022-09-18T06:47:49.238Z,1528.00
2022-09-18T06:50:26.730Z,1612.00
2022-09-18T06:51:26.586Z,1612.00
2022-09-18T06:52:26.507Z,1720.00
2022-09-18T06:53:26.426Z,1844.00
2022-09-18T06:54:26.447Z,1912.00
2022-09-18T06:55:26.384Z,1948.00
2022-09-18T06:56:26.185Z,1984.00
2022-09-18T06:57:26.107Z,2040.00
2022-09-18T06:58:26.028Z,2100.00
2022-09-18T06:59:25.945Z,2164.00
2022-09-18T07:00:25.881Z,2248.00
2022-09-18T07:01:25.895Z,2296.00
2022-09-18T07:02:25.732Z,2316.00
2022-09-18T07:03:25.627Z,2368.00
2022-09-18T07:04:25.544Z,2428.00
2022-09-18T07:05:25.466Z,2556.00
2022-09-18T07:06:25.386Z,2736.00
2022-09-18T07:07:25.306Z,2884.00
2022-09-18T07:08:25.226Z,2996.00
2022-09-18T07:09:25.145Z,3020.00
2022-09-18T07:10:25.118Z,3100.00
2022-09-18T07:11:25.247Z,3180.00
2022-09-18T07:14:08.566Z,3548.00
2022-09-18T07:15:08.485Z,3608.00
2022-09-18T07:16:08.526Z,3596.00
2022-09-18T07:17:08.323Z,3536.00
2022-09-18T07:18:08.245Z,3476.00
2022-09-18T07:19:08.163Z,3520.00
2022-09-18T07:20:08.088Z,3536.00
2022-09-18T07:21:08.005Z,3492.00
2022-09-18T07:22:07.926Z,3376.00
2022-09-18T07:23:07.843Z,3288.00
2022-09-18T07:24:07.773Z,3232.00
2022-09-18T07:25:07.686Z,3164.00
2022-09-18T07:26:07.606Z,3032.00
2022-09-18T07:27:07.647Z,2888.00
2022-09-18T07:28:07.449Z,2808.00
2022-09-18T07:29:10.101Z,2768.00
2022-09-18T07:30:07.291Z,2828.00
2022-09-18T07:31:07.234Z,2928.00
2022-09-18T07:32:07.129Z,2988.00
2022-09-18T07:33:07.048Z,3104.00
2022-09-18T07:34:06.970Z,3244.00
2022-09-18T07:35:06.889Z,3368.00
2022-09-18T07:36:06.813Z,3480.00
2022-09-18T07:37:06.732Z,3584.00
2022-09-18T07:38:06.668Z,3680.00
2022-09-18T07:39:06.571Z,3720.00
2022-09-18T07:40:06.522Z,3808.00
2022-09-18T07:41:06.413Z,3632.00
2022-09-18T07:42:08.947Z,3348.00
2022-09-18T07:43:39.580Z,3228.00
2022-09-18T07:44:39.384Z,3204.00
2022-09-18T07:45:06.092Z,3168.00
2022-09-18T07:46:06.045Z,3100.00
2022-09-18T07:47:05.936Z,3344.00
2022-09-18T07:48:05.855Z,3756.00
2022-09-18T07:49:05.774Z,4020.00
2022-09-18T07:50:05.696Z,4244.00
2022-09-18T07:51:05.615Z,4388.00
2022-09-18T07:52:05.538Z,4436.00
2022-09-18T07:53:05.572Z,4452.00
2022-09-18T07:54:05.377Z,5208.00
2022-09-18T07:55:05.297Z,5848.00
2022-09-18T07:56:05.219Z,5548.00
2022-09-18T07:57:05.136Z,4232.00
2022-09-18T07:58:05.083Z,3772.00
2022-09-18T07:59:05.097Z,3124.00
2022-09-18T08:00:04.905Z,2864.00
2022-09-18T08:01:04.818Z,3008.00
2022-09-18T08:02:04.921Z,3012.00
2022-09-18T08:03:04.817Z,3368.00
2022-09-18T08:04:04.582Z,4076.00
2022-09-18T08:05:04.503Z,4136.00
2022-09-18T08:06:04.423Z,4160.00
2022-09-18T08:07:04.491Z,4292.00
2022-09-18T08:08:04.270Z,4356.00
2022-09-18T08:09:04.293Z,4388.00
2022-09-18T08:10:04.106Z,5192.00
2022-09-18T08:11:04.024Z,5980.00
2022-09-18T08:12:03.946Z,6076.00
2022-09-18T08:13:03.873Z,5784.00
2022-09-18T08:14:03.788Z,5552.00
2022-09-18T08:15:03.827Z,5648.00
2022-09-18T08:16:03.733Z,6132.00
2022-09-18T08:17:03.599Z,6576.00
2022-09-18T08:18:03.471Z,5988.00
2022-09-18T08:19:03.389Z,5680.00
2022-09-18T08:20:03.312Z,5572.00
2022-09-18T08:21:05.303Z,5356.00
2022-09-18T08:22:03.153Z,4948.00
2022-09-18T08:23:03.075Z,4644.00
2022-09-18T08:24:03.062Z,4564.00
2022-09-18T08:25:02.913Z,4660.00
2022-09-18T08:26:02.833Z,4520.00
2022-09-18T08:27:02.761Z,4420.00
2022-09-18T08:28:02.680Z,4444.00
2022-09-18T08:29:02.596Z,4596.00
2022-09-18T08:30:02.516Z,4664.00
2022-09-18T08:31:02.645Z,4700.00
2022-09-18T08:32:05.487Z,4716.00
2022-09-18T08:33:02.277Z,4972.00
2022-09-18T08:34:02.198Z,5476.00
2022-09-18T08:35:02.120Z,5836.00
2022-09-18T08:36:02.042Z,5916.00
2022-09-18T08:37:01.960Z,6064.00
2022-09-18T08:38:02.133Z,6140.00
2022-09-18T08:39:01.800Z,6124.00
2022-09-18T08:40:01.764Z,6040.00
2022-09-18T08:41:01.642Z,5916.00
2022-09-18T08:42:01.566Z,5812.00
2022-09-18T08:43:01.485Z,5700.00
2022-09-18T08:44:01.459Z,5656.00
2022-09-18T08:45:01.325Z,5804.00
2022-09-18T08:46:01.248Z,5840.00
2022-09-18T08:47:01.373Z,5400.00
2022-09-18T08:48:01.143Z,5240.00
2022-09-18T08:49:01.012Z,5356.00
2022-09-18T08:50:00.936Z,5340.00
2022-09-18T08:51:00.852Z,5384.00
2022-09-18T08:52:00.775Z,5512.00
2022-09-18T08:53:00.695Z,5676.00
2022-09-18T08:54:00.713Z,5820.00
2022-09-18T08:55:00.538Z,5980.00
2022-09-18T08:56:00.462Z,5916.00
2022-09-18T08:57:00.378Z,6220.00
2022-09-18T08:58:00.345Z,6196.00
2022-09-18T08:59:00.227Z,5704.00
2022-09-18T09:00:00.147Z,5256.00
2022-09-18T09:01:00.096Z,5200.00
2022-09-18T09:02:00.019Z,5284.00
2022-09-18T09:03:00.024Z,5000.00
2022-09-18T09:03:59.828Z,4872.00
2022-09-18T09:04:59.749Z,4960.00
2022-09-18T09:05:59.673Z,4816.00
2022-09-18T09:06:59.599Z,4456.00
2022-09-18T09:07:59.516Z,4748.00
2022-09-18T09:08:59.434Z,4416.00
2022-09-18T09:09:59.356Z,3720.00
2022-09-18T09:10:59.277Z,3368.00
2022-09-18T09:11:59.198Z,3072.00
2022-09-18T09:12:59.118Z,3180.00
2022-09-18T09:13:59.041Z,2752.00
2022-09-18T09:14:58.961Z,3940.00
2022-09-18T09:15:58.935Z,4612.00
2022-09-18T09:16:58.804Z,4760.00
2022-09-18T09:17:58.826Z,5356.00
2022-09-18T09:18:58.766Z,6148.00
2022-09-18T09:19:58.565Z,6216.00
2022-09-18T09:20:58.485Z,6260.00
2022-09-18T09:21:58.409Z,6052.00
2022-09-18T09:22:58.329Z,5356.00
2022-09-18T09:23:58.250Z,5036.00
2022-09-18T09:24:58.171Z,3732.00
2022-09-18T09:25:58.090Z,2856.00
2022-09-18T09:26:58.011Z,2424.00
2022-09-18T09:27:57.934Z,2372.00
2022-09-18T09:28:57.853Z,2352.00
2022-09-18T09:29:57.779Z,2620.00
2022-09-18T09:30:57.699Z,3020.00
2022-09-18T09:31:57.699Z,3220.00
2022-09-18T09:32:57.537Z,3832.00
2022-09-18T09:33:57.461Z,5868.00
2022-09-18T09:34:57.542Z,5476.00
2022-09-18T09:35:57.320Z,6744.00
2022-09-18T09:36:57.220Z,6456.00
2022-09-18T09:37:57.143Z,6024.00
2022-09-18T09:38:57.061Z,5508.00
2022-09-18T09:39:57.007Z,5320.00
2022-09-18T09:40:56.906Z,4428.00
2022-09-18T09:41:56.825Z,3896.00
2022-09-18T09:42:56.748Z,4080.00
2022-09-18T09:43:56.672Z,4076.00
2022-09-18T09:44:56.590Z,5284.00
2022-09-18T09:45:56.512Z,6216.00
2022-09-18T09:46:56.515Z,6564.00
2022-09-18T09:47:56.353Z,6332.00
2022-09-18T09:48:56.274Z,6116.00
2022-09-18T09:49:56.195Z,6124.00
2022-09-18T09:50:56.238Z,6232.00
2022-09-18T09:51:56.037Z,6660.00
2022-09-18T09:52:55.961Z,7048.00
2022-09-18T09:53:55.894Z,7116.00
2022-09-18T09:54:55.798Z,7064.00
2022-09-18T09:55:55.722Z,7276.00
2022-09-18T09:56:55.742Z,7208.00
2022-09-18T09:57:55.563Z,7356.00
2022-09-18T09:58:55.484Z,6976.00
2022-09-18T09:59:55.407Z,6388.00
2022-09-18T10:00:55.403Z,6104.00
2022-09-18T10:01:55.325Z,5716.00
2022-09-18T10:02:55.170Z,6048.00
2022-09-18T10:03:55.095Z,7036.00
2022-09-18T10:04:55.013Z,7008.00
2022-09-18T10:09:10.734Z,8020.00
2022-09-18T10:10:10.523Z,8416.00
2022-09-18T10:11:10.446Z,8292.00
2022-09-18T10:12:10.368Z,8084.00
2022-09-18T10:13:10.291Z,8012.00
2022-09-18T10:14:10.211Z,8048.00
2022-09-18T10:15:10.134Z,7868.00
2022-09-18T10:16:10.129Z,7704.00
2022-09-18T10:17:09.976Z,8024.00
2022-09-18T10:18:13.319Z,7512.00
2022-09-18T10:19:09.821Z,5336.00
2022-09-18T10:20:09.743Z,4852.00
2022-09-18T10:21:09.665Z,5352.00
2022-09-18T10:22:09.585Z,4372.00
2022-09-18T10:23:09.508Z,3328.00
2022-09-18T10:24:09.430Z,3456.00
2022-09-18T10:25:09.472Z,5672.00
2022-09-18T10:26:09.307Z,5472.00
2022-09-18T10:27:09.197Z,4448.00
2022-09-18T10:28:09.117Z,4628.00
2022-09-18T10:29:09.041Z,4156.00
2022-09-18T10:30:08.962Z,4104.00
2022-09-18T10:31:08.917Z,3864.00
2022-09-18T10:32:08.804Z,3704.00
2022-09-18T10:33:08.727Z,3652.00
2022-09-18T10:34:08.649Z,3924.00
2022-09-18T10:35:08.571Z,4048.00
2022-09-18T10:36:08.491Z,4356.00
2022-09-18T10:37:08.414Z,4376.00
2022-09-18T10:38:08.338Z,4572.00
2022-09-18T10:39:08.256Z,5040.00
2022-09-18T10:40:08.257Z,5540.00
2022-09-18T10:41:08.215Z,5812.00
2022-09-18T10:42:08.022Z,6224.00
2022-09-18T10:43:07.944Z,6408.00
2022-09-18T10:44:07.864Z,6676.00
2022-09-18T10:45:07.785Z,7012.00
2022-09-18T10:47:15.207Z,8108.00
2022-09-18T10:48:15.127Z,8624.00
2022-09-18T10:49:15.049Z,8840.00
2022-09-18T10:51:32.474Z,7776.00
2022-09-18T10:52:32.448Z,8668.00
2022-09-18T10:53:32.323Z,8484.00
2022-09-18T10:54:32.239Z,9876.00
2022-09-18T10:55:32.160Z,9416.00
2022-09-18T10:56:32.197Z,7284.00
2022-09-18T10:57:32.016Z,6684.00
2022-09-18T10:58:31.928Z,7636.00
2022-09-18T10:59:31.854Z,8272.00
2022-09-18T11:00:31.808Z,8616.00
2022-09-18T11:01:31.749Z,6828.00
2022-09-18T11:02:31.713Z,6948.00
2022-09-18T11:03:31.641Z,7376.00
2022-09-18T11:04:31.462Z,8084.00
2022-09-18T11:05:31.384Z,7952.00
2022-09-18T11:06:31.312Z,7240.00
2022-09-18T11:07:31.227Z,7856.00
2022-09-18T11:08:31.157Z,8300.00
2022-09-18T11:12:26.845Z,6472.00
2022-09-18T11:13:26.650Z,5480.00
2022-09-18T11:14:26.573Z,5240.00
2022-09-18T11:15:26.494Z,5052.00
2022-09-18T11:16:26.481Z,5024.00
2022-09-18T11:17:26.339Z,5508.00
2022-09-18T11:18:26.470Z,5476.00
2022-09-18T11:23:35.079Z,6060.00
2022-09-18T11:24:34.999Z,6276.00
2022-09-18T11:25:34.921Z,6224.00
2022-09-18T11:26:34.843Z,5552.00
2022-09-18T11:27:34.882Z,5656.00
2022-09-18T11:28:34.688Z,6152.00
2022-09-18T11:29:34.608Z,5264.00
2022-09-18T11:30:34.531Z,4336.00
2022-09-18T11:31:34.491Z,3768.00
2022-09-18T11:32:34.376Z,4080.00
2022-09-18T11:33:34.297Z,4352.00
2022-09-18T11:34:34.268Z,4196.00
2022-09-18T11:35:34.141Z,3480.00
2022-09-18T11:36:34.064Z,3432.00
2022-09-18T11:37:33.986Z,3664.00
2022-09-18T11:38:33.905Z,3468.00
2022-09-18T11:39:33.829Z,3556.00
2022-09-18T11:40:33.814Z,4064.00
2022-09-18T11:41:33.672Z,5336.00
2022-09-18T11:42:33.597Z,6532.00
2022-09-18T11:43:33.630Z,6428.00
2022-09-18T11:44:33.450Z,6716.00
2022-09-18T11:45:33.361Z,7088.00
2022-09-18T11:46:33.302Z,7236.00
2022-09-18T11:47:33.202Z,7408.00
2022-09-18T11:48:33.131Z,7276.00
2022-09-18T11:49:33.077Z,7028.00
2022-09-18T11:50:32.968Z,6576.00
2022-09-18T11:51:32.892Z,6512.00
2022-09-18T11:52:32.816Z,5820.00
2022-09-18T11:53:32.734Z,5580.00
2022-09-18T11:54:32.653Z,5772.00
2022-09-18T11:55:32.578Z,5344.00
2022-09-18T11:56:32.501Z,5172.00
2022-09-18T11:57:32.423Z,4876.00
2022-09-18T11:58:32.344Z,4228.00
2022-09-18T11:59:32.383Z,5344.00
2022-09-18T12:00:32.189Z,6052.00
2022-09-18T12:01:32.120Z,4596.00
2022-09-18T12:02:32.202Z,3272.00
2022-09-18T12:03:32.037Z,4924.00
2022-09-18T12:04:31.877Z,4920.00
2022-09-18T12:05:31.798Z,2788.00
2022-09-18T12:06:31.720Z,2160.00
2022-09-18T12:07:43.023Z,2700.00
2022-09-18T12:08:30.208Z,1864.00
2022-09-18T12:09:30.129Z,1376.00
2022-09-18T12:10:30.049Z,1032.00
2022-09-18T12:11:29.971Z,1132.00
2022-09-18T12:12:29.890Z,1160.00
2022-09-18T12:13:29.814Z,1304.00
2022-09-18T12:14:29.735Z,1316.00
2022-09-18T12:15:29.777Z,1432.00
2022-09-18T12:16:29.667Z,1756.00
2022-09-18T12:17:29.495Z,1920.00
2022-09-18T12:18:29.418Z,1456.00
2022-09-18T12:19:29.344Z,1880.00
2022-09-18T12:20:29.257Z,2452.00
2022-09-18T12:21:29.179Z,2792.00
2022-09-18T12:22:29.098Z,3176.00
2022-09-18T12:23:29.018Z,3516.00
2022-09-18T12:24:28.941Z,2392.00
2022-09-18T12:25:28.858Z,1260.00
2022-09-18T12:26:28.781Z,1820.00
2022-09-18T12:27:28.701Z,2872.00
2022-09-18T12:28:28.620Z,3852.00
2022-09-18T12:29:28.540Z,4552.00
2022-09-18T12:30:28.464Z,4344.00
2022-09-18T12:31:28.719Z,4328.00
2022-09-18T12:32:28.302Z,3940.00
2022-09-18T12:33:32.194Z,3588.00
2022-09-18T12:34:28.142Z,3960.00
2022-09-18T12:35:28.063Z,4148.00
2022-09-18T12:36:27.981Z,4320.00
2022-09-18T12:37:27.903Z,4564.00
2022-09-18T12:38:27.821Z,5028.00
2022-09-18T12:39:28.415Z,5196.00
2022-09-18T12:40:28.438Z,5364.00
2022-09-18T12:41:28.257Z,5188.00
2022-09-18T12:42:28.175Z,5008.00
2022-09-18T12:43:28.097Z,4400.00
2022-09-18T12:46:54.900Z,5668.00
2022-09-18T12:47:53.570Z,6388.00
2022-09-18T12:48:53.492Z,5436.00
2022-09-18T12:49:53.409Z,4612.00
2022-09-18T12:50:53.333Z,3524.00
2022-09-18T12:51:53.252Z,2852.00
2022-09-18T12:53:08.484Z,2116.00
2022-09-18T12:53:53.094Z,1944.00
2022-09-18T12:54:53.017Z,1668.00
2022-09-18T12:55:52.938Z,1548.00
2022-09-18T12:56:52.858Z,1364.00
2022-09-18T12:57:52.777Z,1140.00
2022-09-18T12:58:52.698Z,1024.00
2022-09-18T12:59:52.618Z,884.00
2022-09-18T13:00:52.614Z,788.00
2022-09-18T13:01:52.508Z,824.00
2022-09-18T13:02:52.537Z,1108.00
2022-09-18T13:03:52.301Z,1196.00
2022-09-18T13:04:52.222Z,1240.00
2022-09-18T13:05:52.142Z,1656.00
2022-09-18T13:06:52.063Z,1932.00
2022-09-18T13:07:51.982Z,1804.00
2022-09-18T13:08:51.903Z,1608.00
2022-09-18T13:09:51.823Z,1448.00
2022-09-18T13:10:51.746Z,1292.00
2022-09-18T13:11:51.665Z,1280.00
2022-09-18T13:12:51.637Z,1348.00
2022-09-18T13:13:51.815Z,1380.00
2022-09-18T13:14:51.426Z,1368.00
2022-09-18T13:15:51.453Z,1284.00
2022-09-18T13:16:52.009Z,1276.00
2022-09-18T13:17:51.920Z,1460.00
2022-09-18T13:18:52.110Z,1540.00
2022-09-18T13:19:51.760Z,1296.00
2022-09-18T13:20:51.681Z,1620.00
2022-09-18T13:21:51.600Z,1376.00
2022-09-18T13:22:53.842Z,1284.00
2022-09-18T13:23:51.439Z,2156.00
2022-09-18T13:26:08.864Z,2812.00
2022-09-18T13:27:08.797Z,2256.00
2022-09-18T13:28:08.709Z,2100.00
2022-09-18T13:29:08.626Z,2224.00
2022-09-18T13:30:08.546Z,1896.00
2022-09-18T13:31:08.497Z,1732.00
2022-09-18T13:32:08.385Z,1960.00
2022-09-18T13:33:08.310Z,2048.00
2022-09-18T13:34:08.345Z,2180.00
2022-09-18T13:35:08.146Z,2224.00
2022-09-18T13:36:08.067Z,2080.00
2022-09-18T13:37:08.186Z,1964.00
2022-09-18T13:38:07.909Z,2044.00
2022-09-18T13:39:07.942Z,1548.00
2022-09-18T13:40:10.688Z,1932.00
2022-09-18T13:41:07.669Z,2284.00
2022-09-18T13:42:07.590Z,1948.00
2022-09-18T13:43:07.593Z,1856.00
2022-09-18T13:44:07.431Z,1804.00
2022-09-18T13:45:07.350Z,1788.00
2022-09-18T13:46:07.586Z,1668.00
2022-09-18T13:47:07.193Z,1944.00
2022-09-18T13:48:07.115Z,2284.00
2022-09-18T13:49:07.033Z,2532.00
2022-09-18T13:50:07.077Z,2540.00
2022-09-18T13:51:06.872Z,2280.00
2022-09-18T13:52:06.795Z,1976.00
2022-09-18T13:53:06.715Z,1580.00
2022-09-18T13:54:06.635Z,1340.00
2022-09-18T13:55:06.556Z,1292.00
2022-09-18T13:56:06.678Z,1200.00
2022-09-18T13:57:06.401Z,1200.00
2022-09-18T13:58:06.370Z,1248.00
2022-09-18T13:59:06.241Z,1328.00
2022-09-18T14:00:06.162Z,1188.00
2022-09-18T14:01:06.210Z,1196.00
2022-09-18T14:02:06.023Z,1076.00